Observations for BARCELONA AIRPORT, Spain (LEBL)

LEBL 202230Z 32007KT CAVOK 11/04 Q1022 NOSIG
LEBL 202200Z 32006KT 270V010 9999 FEW030 11/04 Q1022 NOSIG  
LEBL 202130Z 31006KT CAVOK 11/05 Q1022 NOSIG
LEBL 202100Z 32007KT 280V350 CAVOK 11/05 Q1022 NOSIG
LEBL 202030Z 32008KT CAVOK 11/05 Q1022 NOSIG
LEBL 202000Z 31007KT 260V350 CAVOK 11/05 Q1022 NOSIG
LEBL 201930Z 31006KT 250V060 CAVOK 11/05 Q1022 NOSIG
LEBL 201900Z VRB05KT CAVOK 11/06 Q1022 NOSIG
LEBL 201830Z 29005KT 260V350 CAVOK 12/05 Q1022 NOSIG
LEBL 201800Z 25004KT CAVOK 14/06 Q1022 NOSIG
LEBL 201730Z 25006KT CAVOK 14/06 Q1022 NOSIG
LEBL 201700Z 25007KT CAVOK 15/06 Q1022 NOSIG
LEBL 201630Z 25007KT CAVOK 15/06 Q1022 NOSIG
LEBL 201600Z 24007KT CAVOK 16/06 Q1022 NOSIG
LEBL 201530Z 23007KT CAVOK 17/06 Q1022 NOSIG
LEBL 201500Z 23008KT CAVOK 17/04 Q1022 NOSIG
LEBL 201430Z 23007KT CAVOK 17/06 Q1022 NOSIG
LEBL 201400Z 21007KT CAVOK 17/06 Q1022 NOSIG
LEBL 201330Z 20006KT 170V230 CAVOK 17/07 Q1022 NOSIG
LEBL 201300Z 29004KT 250V330 CAVOK 17/07 Q1022 NOSIG
LEBL 201230Z 29004KT 240V340 CAVOK 18/04 Q1023 NOSIG
LEBL 201200Z 32006KT 240V030 CAVOK 16/04 Q1023 NOSIG
LEBL 201130Z 31007KT 270V350 CAVOK 16/05 Q1023 NOSIG
LEBL 201100Z 32006KT 280V350 CAVOK 14/04 Q1024 NOSIG
LEBL 201030Z 33008KT 260V010 CAVOK 14/05 Q1024 NOSIG
LEBL 201000Z 33010KT CAVOK 12/04 Q1024 NOSIG
LEBL 200930Z 33010KT CAVOK 11/03 Q1024 NOSIG
LEBL 200900Z 33012KT CAVOK 09/03 Q1024 NOSIG
LEBL 200830Z 33012KT CAVOK 08/03 Q1023 NOSIG
LEBL 200800Z 33013G26KT CAVOK 07/02 Q1023 NOSIG 
LEBL 200730Z 33014KT CAVOK 06/02 Q1023 NOSIG
LEBL 200700Z 33012KT CAVOK 07/02 Q1023 NOSIG
LEBL 200630Z 33013KT CAVOK 06/03 Q1022 NOSIG
LEBL 200600Z 33012KT CAVOK 07/03 Q1022 NOSIG
LEBL 200530Z 33013KT CAVOK 07/03 Q1022 NOSIG
LEBL 200500Z 33014KT 9999 FEW020 08/03 Q1023 NOSIG  
LEBL 200430Z 33014KT 9999 FEW020 07/03 Q1022 NOSIG  
LEBL 200400Z 33014KT CAVOK 07/03 Q1022 NOSIG
LEBL 200330Z 33013KT CAVOK 08/03 Q1022 NOSIG
LEBL 200300Z 33014KT CAVOK 08/03 Q1022 NOSIG
LEBL 200230Z 33011KT CAVOK 08/03 Q1022 NOSIG
LEBL 200200Z 33013KT CAVOK 08/04 Q1022 NOSIG
LEBL 200130Z 32011KT CAVOK 08/04 Q1022 NOSIG
LEBL 200100Z 33012KT CAVOK 09/04 Q1022 NOSIG
LEBL 200030Z 33011KT CAVOK 09/04 Q1022 NOSIG
LEBL 200000Z 34011KT CAVOK 09/04 Q1022 NOSIG
LEBL 192330Z 33010KT CAVOK 10/04 Q1022 NOSIG
LEBL 192300Z 33010KT CAVOK 10/04 Q1022 NOSIG
LEBL 192230Z 33010KT CAVOK 11/04 Q1022 NOSIG
LEBL 192200Z 33009G19KT 310V010 CAVOK 11/04 Q1022 NOSIG